Time;durP1;ratioP1;P1;durP2;ratioP2;P2;SDS_P1;SDS_P2;PMS_P1;PMS_P2;Temp;Humidity;BMP_temperature;BMP_pressure;BME280_temperature;BME280_humidity;BME280_pressure;Samples;Min_cycle;Max_cycle;Signal;HPM_P1;HPM_P2
2023/08/20 00:02:01;;;;;;;12.32;5.95;;;18.70;99.90;;;;;;5064959;28;20074;-53
2023/08/20 00:04:27;;;;;;;11.15;5.55;;;18.70;99.90;;;;;;5100300;28;20048;-51
2023/08/20 00:06:54;;;;;;;9.82;5.30;;;18.60;99.90;;;;;;5068102;28;20375;-52
2023/08/20 00:09:19;;;;;;;12.80;5.85;;;18.60;99.90;;;;;;5066489;28;20037;-50
2023/08/20 00:11:45;;;;;;;10.55;5.40;;;18.60;99.90;;;;;;5066789;28;20187;-51
2023/08/20 00:14:17;;;;;;;9.43;5.30;;;18.50;99.90;;;;;;5068047;28;20039;-50
2023/08/20 00:16:43;;;;;;;8.60;5.32;;;18.50;99.90;;;;;;5066957;28;20029;-51
2023/08/20 00:19:10;;;;;;;11.43;5.13;;;18.50;99.90;;;;;;5067270;28;20078;-51
2023/08/20 00:21:42;;;;;;;10.57;5.97;;;18.40;99.90;;;;;;5066821;28;20040;-49
2023/08/20 00:24:08;;;;;;;11.07;5.50;;;18.40;99.90;;;;;;5065942;28;20043;-52
2023/08/20 00:26:34;;;;;;;11.30;5.97;;;18.40;99.90;;;;;;5065852;28;20044;-50
2023/08/20 00:29:00;;;;;;;11.52;5.93;;;18.40;99.90;;;;;;5066517;28;20503;-50
2023/08/20 00:31:26;;;;;;;9.93;5.60;;;18.30;99.90;;;;;;5065078;28;20060;-51
2023/08/20 00:33:51;;;;;;;10.68;5.45;;;18.30;99.90;;;;;;5063852;28;20407;-50
2023/08/20 00:36:17;;;;;;;11.35;5.55;;;18.30;99.90;;;;;;5066136;28;20123;-49
2023/08/20 00:38:43;;;;;;;9.48;5.68;;;18.10;99.90;;;;;;5066604;28;20051;-51
2023/08/20 00:41:08;;;;;;;9.77;5.80;;;18.10;99.90;;;;;;5066719;28;20896;-51
2023/08/20 00:43:34;;;;;;;11.35;6.30;;;18.10;99.90;;;;;;5067849;28;20067;-48
2023/08/20 00:46:00;;;;;;;13.73;6.05;;;18.10;99.90;;;;;;5066822;28;20044;-49
2023/08/20 00:48:26;;;;;;;14.55;7.05;;;18.10;99.90;;;;;;5065239;28;20083;-50
2023/08/20 00:50:52;;;;;;;11.20;6.45;;;18.10;99.90;;;;;;5067351;28;20033;-49
2023/08/20 00:53:18;;;;;;;11.35;5.63;;;18.10;99.90;;;;;;5066981;28;20751;-51
2023/08/20 00:55:44;;;;;;;11.70;6.30;;;18.00;99.90;;;;;;5068153;28;20040;-50
2023/08/20 00:58:10;;;;;;;14.35;6.20;;;18.00;99.90;;;;;;5065636;28;20047;-47
2023/08/20 01:00:36;;;;;;;10.25;5.82;;;17.90;99.90;;;;;;5065428;28;20115;-49
2023/08/20 01:03:02;;;;;;;14.68;6.05;;;17.90;99.90;;;;;;5066277;28;20552;-51
2023/08/20 01:05:33;;;;;;;15.25;7.63;;;17.90;99.90;;;;;;5066056;28;20388;-52
2023/08/20 01:08:23;;;;;;;12.30;7.50;;;17.90;99.90;;;;;;5064710;28;20064;-50
2023/08/20 01:11:08;;;;;;;10.90;6.28;;;17.80;99.90;;;;;;5066785;28;20482;-50
2023/08/20 01:13:33;;;;;;;11.23;6.43;;;17.80;99.90;;;;;;5066301;28;20041;-51
2023/08/20 01:15:59;;;;;;;9.43;6.40;;;17.80;99.90;;;;;;5065867;28;20484;-51
2023/08/20 01:18:25;;;;;;;12.75;6.88;;;17.70;99.90;;;;;;5065050;28;20123;-49
2023/08/20 01:20:58;;;;;;;11.05;6.72;;;17.70;99.90;;;;;;5065076;28;20548;-48
2023/08/20 01:23:56;;;;;;;14.57;7.47;;;17.60;99.90;;;;;;5098391;28;20479;-51
2023/08/20 01:26:49;;;;;;;11.70;7.32;;;17.60;99.90;;;;;;5064358;28;20532;-52
2023/08/20 01:29:15;;;;;;;12.45;8.10;;;17.60;99.90;;;;;;5063657;28;20044;-51
2023/08/20 01:31:43;;;;;;;11.18;7.00;;;17.60;99.90;;;;;;5063747;28;20045;-51
2023/08/20 01:34:09;;;;;;;14.02;7.07;;;17.60;99.90;;;;;;5066015;28;20086;-51
2023/08/20 01:36:34;;;;;;;12.45;7.45;;;17.60;99.90;;;;;;5070739;28;20055;-51
2023/08/20 01:39:00;;;;;;;12.10;7.43;;;17.50;99.90;;;;;;5069509;28;20071;-52
2023/08/20 01:41:26;;;;;;;12.95;7.53;;;17.50;99.90;;;;;;5070770;28;20472;-51
2023/08/20 01:43:52;;;;;;;13.48;7.20;;;17.40;99.90;;;;;;5068544;28;20032;-52
2023/08/20 01:46:17;;;;;;;15.57;7.25;;;17.40;99.90;;;;;;5069097;28;20025;-50
2023/08/20 01:48:43;;;;;;;13.65;7.18;;;17.40;99.90;;;;;;5067586;28;20063;-52
2023/08/20 01:51:09;;;;;;;11.48;7.30;;;17.40;99.90;;;;;;5067693;28;20036;-50
2023/08/20 01:53:35;;;;;;;10.15;7.40;;;17.50;99.90;;;;;;5067487;28;20047;-49
2023/08/20 01:56:00;;;;;;;14.43;7.75;;;17.40;99.90;;;;;;5053779;28;20049;-50
2023/08/20 01:58:26;;;;;;;11.57;7.05;;;17.40;99.90;;;;;;5069975;28;20070;-52
2023/08/20 02:00:52;;;;;;;11.18;6.50;;;17.40;99.90;;;;;;5068640;28;20048;-51
2023/08/20 02:03:18;;;;;;;10.73;6.40;;;17.40;99.90;;;;;;5070470;28;20036;-49
2023/08/20 02:05:44;;;;;;;12.88;6.93;;;17.40;99.90;;;;;;5071055;28;20037;-53
2023/08/20 02:08:09;;;;;;;9.95;6.07;;;17.40;99.90;;;;;;5068485;28;20036;-48
2023/08/20 02:10:35;;;;;;;12.48;6.70;;;17.40;99.90;;;;;;5070372;28;20040;-50
2023/08/20 02:13:01;;;;;;;10.35;6.00;;;17.50;99.90;;;;;;5068430;28;20040;-52
2023/08/20 02:15:27;;;;;;;11.30;5.95;;;17.40;99.90;;;;;;5069426;28;20627;-50
2023/08/20 02:17:53;;;;;;;9.32;5.90;;;17.40;99.90;;;;;;5068889;28;20032;-48
2023/08/20 02:20:19;;;;;;;9.73;6.10;;;17.50;99.90;;;;;;5069813;28;20036;-48
2023/08/20 02:22:44;;;;;;;13.82;6.22;;;17.40;99.90;;;;;;5069840;28;20129;-52
2023/08/20 02:25:10;;;;;;;10.98;6.85;;;17.40;99.90;;;;;;5070263;28;20468;-52
2023/08/20 02:27:36;;;;;;;11.95;6.63;;;17.30;99.90;;;;;;5068668;28;20033;-47
2023/08/20 02:30:02;;;;;;;13.52;7.40;;;17.30;99.90;;;;;;5069091;28;20045;-49
2023/08/20 02:32:27;;;;;;;10.98;6.15;;;17.30;99.90;;;;;;5069053;28;20029;-50
2023/08/20 02:34:54;;;;;;;10.68;6.20;;;17.30;99.90;;;;;;5067876;28;20042;-48
2023/08/20 02:37:19;;;;;;;13.65;7.07;;;17.20;99.90;;;;;;5070035;28;20036;-48
2023/08/20 02:39:45;;;;;;;11.10;6.57;;;17.10;99.90;;;;;;5068405;28;20442;-49
2023/08/20 02:42:11;;;;;;;11.57;6.72;;;17.20;99.90;;;;;;5066949;28;20094;-51
2023/08/20 02:44:37;;;;;;;13.75;6.80;;;17.20;99.90;;;;;;5067814;28;20596;-52
2023/08/20 02:47:02;;;;;;;11.18;7.00;;;17.10;99.90;;;;;;5067125;28;20044;-52
2023/08/20 02:49:28;;;;;;;12.43;7.07;;;17.10;99.90;;;;;;5068837;28;20053;-50
2023/08/20 02:51:54;;;;;;;11.27;6.90;;;17.00;99.90;;;;;;5068016;28;20476;-50
2023/08/20 02:54:19;;;;;;;11.13;6.93;;;17.00;99.90;;;;;;5069317;28;20132;-52
2023/08/20 02:56:45;;;;;;;10.18;6.38;;;16.90;99.90;;;;;;5070535;28;20048;-49
2023/08/20 02:59:11;;;;;;;12.63;7.05;;;17.00;99.90;;;;;;5068428;28;20049;-48
2023/08/20 03:01:37;;;;;;;11.30;6.63;;;16.90;99.90;;;;;;5068236;28;20036;-52
2023/08/20 03:04:03;;;;;;;15.23;6.80;;;16.90;99.90;;;;;;5070169;28;20090;-51
2023/08/20 03:06:28;;;;;;;12.75;7.05;;;16.90;99.90;;;;;;5068813;28;20392;-48
2023/08/20 03:08:54;;;;;;;10.18;7.20;;;16.90;99.90;;;;;;5068977;28;20075;-49
2023/08/20 03:11:20;;;;;;;12.50;6.85;;;16.90;99.90;;;;;;5068651;28;20464;-51
2023/08/20 03:13:45;;;;;;;10.57;6.72;;;16.80;99.90;;;;;;5069203;28;20060;-51
2023/08/20 03:16:11;;;;;;;10.77;6.20;;;16.80;99.90;;;;;;5066937;28;20049;-49
2023/08/20 03:18:37;;;;;;;13.13;8.30;;;16.80;99.90;;;;;;5069084;28;20369;-50
2023/08/20 03:21:02;;;;;;;12.07;7.57;;;16.80;99.90;;;;;;5053075;28;20032;-48
2023/08/20 03:23:29;;;;;;;13.45;7.97;;;16.90;99.90;;;;;;5068098;28;20541;-49
2023/08/20 03:25:58;;;;;;;11.07;8.00;;;16.80;99.90;;;;;;5067328;28;20082;-51
2023/08/20 03:28:24;;;;;;;14.25;8.15;;;16.80;99.90;;;;;;5066945;28;20078;-52
2023/08/20 03:30:49;;;;;;;16.08;8.40;;;16.80;99.90;;;;;;5066639;28;20063;-51
2023/08/20 03:33:16;;;;;;;13.77;8.48;;;16.70;99.90;;;;;;5066844;28;20483;-50
2023/08/20 03:35:43;;;;;;;9.93;6.97;;;16.70;99.90;;;;;;5069104;28;20040;-51
2023/08/20 03:38:08;;;;;;;10.38;8.07;;;16.70;99.90;;;;;;5065952;28;20041;-50
2023/08/20 03:40:34;;;;;;;12.18;8.13;;;16.70;99.90;;;;;;5066107;28;20056;-50
2023/08/20 03:43:00;;;;;;;13.05;6.95;;;16.60;99.90;;;;;;5068848;28;20032;-51
2023/08/20 03:45:26;;;;;;;13.63;7.35;;;16.60;99.90;;;;;;5066685;28;20074;-49
2023/08/20 03:47:52;;;;;;;13.07;8.18;;;16.60;99.90;;;;;;5068819;28;20045;-53
2023/08/20 03:50:17;;;;;;;11.13;7.07;;;16.60;99.90;;;;;;5066725;28;20045;-52
2023/08/20 03:52:43;;;;;;;9.45;6.28;;;16.60;99.90;;;;;;5065742;28;20101;-50
2023/08/20 03:55:09;;;;;;;12.40;8.07;;;16.60;99.90;;;;;;5067010;28;20051;-49
2023/08/20 03:57:35;;;;;;;12.65;8.20;;;16.60;99.90;;;;;;5066804;28;20455;-48
2023/08/20 04:00:00;;;;;;;10.25;7.07;;;16.60;99.90;;;;;;5065595;28;20029;-51
2023/08/20 04:02:26;;;;;;;11.80;8.10;;;16.60;99.90;;;;;;5065563;28;20036;-52
2023/08/20 04:04:52;;;;;;;13.27;8.98;;;16.50;99.90;;;;;;5068990;28;20145;-51
2023/08/20 04:07:18;;;;;;;18.20;9.60;;;16.60;99.90;;;;;;5067293;28;20123;-50
2023/08/20 04:09:44;;;;;;;13.90;9.43;;;16.60;99.90;;;;;;5065877;28;20033;-50
2023/08/20 04:12:09;;;;;;;14.15;9.68;;;16.50;99.90;;;;;;5067835;28;20154;-49
2023/08/20 04:14:35;;;;;;;13.52;9.45;;;16.50;99.90;;;;;;5068186;28;20068;-48
2023/08/20 04:17:01;;;;;;;16.27;10.25;;;16.50;99.90;;;;;;5066216;28;20377;-49
2023/08/20 04:19:26;;;;;;;13.82;10.35;;;16.40;99.90;;;;;;5067825;28;20115;-50
2023/08/20 04:21:52;;;;;;;17.02;10.82;;;16.40;99.90;;;;;;5065298;28;20043;-51
2023/08/20 04:24:18;;;;;;;15.85;10.52;;;16.30;99.90;;;;;;5065348;28;20036;-52
2023/08/20 04:26:43;;;;;;;13.75;9.45;;;16.30;99.90;;;;;;5066648;28;20037;-48
2023/08/20 04:29:09;;;;;;;13.45;9.15;;;16.30;99.90;;;;;;5067035;28;20516;-47
2023/08/20 04:31:35;;;;;;;14.85;8.77;;;16.20;99.90;;;;;;5065623;28;20045;-51
2023/08/20 04:34:01;;;;;;;12.60;8.27;;;16.30;99.90;;;;;;5066554;28;20055;-48
2023/08/20 04:36:27;;;;;;;10.70;8.70;;;16.20;99.90;;;;;;5067783;28;20036;-47
2023/08/20 04:38:52;;;;;;;11.77;8.27;;;16.20;99.90;;;;;;5065544;28;20476;-50
2023/08/20 04:41:18;;;;;;;9.95;7.80;;;16.20;99.90;;;;;;5069023;28;20127;-48
2023/08/20 04:43:44;;;;;;;10.95;8.35;;;16.10;99.90;;;;;;5066323;28;20388;-51
2023/08/20 04:46:09;;;;;;;12.80;8.48;;;16.20;99.90;;;;;;5065641;28;20169;-52
2023/08/20 04:48:35;;;;;;;13.00;7.78;;;16.20;99.90;;;;;;5065743;28;20118;-50
2023/08/20 04:51:01;;;;;;;11.98;7.95;;;16.10;99.90;;;;;;5065119;28;20044;-51
2023/08/20 04:53:26;;;;;;;12.07;7.88;;;16.20;99.90;;;;;;5066207;28;20032;-50
2023/08/20 04:55:52;;;;;;;14.30;8.77;;;16.10;99.90;;;;;;5065202;28;20040;-49
2023/08/20 04:58:18;;;;;;;10.68;8.55;;;16.20;99.90;;;;;;5066747;28;20124;-50
2023/08/20 05:00:43;;;;;;;14.18;8.57;;;16.20;99.90;;;;;;5066114;28;20050;-50
2023/08/20 05:03:09;;;;;;;12.50;8.70;;;16.20;99.90;;;;;;5064376;28;20412;-50
2023/08/20 05:05:35;;;;;;;11.63;8.95;;;16.20;99.90;;;;;;5067743;28;20052;-49
2023/08/20 05:08:00;;;;;;;10.20;8.43;;;16.20;99.90;;;;;;5064876;28;20044;-53
2023/08/20 05:10:26;;;;;;;12.18;8.20;;;16.20;99.90;;;;;;5065300;28;20028;-49
2023/08/20 05:12:52;;;;;;;11.63;7.90;;;16.20;99.90;;;;;;5067523;28;20035;-50
2023/08/20 05:15:18;;;;;;;11.98;8.63;;;16.20;99.90;;;;;;5066095;28;20039;-48
2023/08/20 05:17:43;;;;;;;14.63;9.23;;;16.20;99.90;;;;;;5067869;28;20087;-52
2023/08/20 05:20:10;;;;;;;15.40;9.07;;;16.30;99.90;;;;;;5065028;28;20613;-52
2023/08/20 05:22:36;;;;;;;13.52;8.07;;;16.20;99.90;;;;;;5064532;28;20079;-52
2023/08/20 05:25:01;;;;;;;12.13;7.97;;;16.30;99.90;;;;;;5065910;28;20088;-51
2023/08/20 05:27:27;;;;;;;10.48;7.65;;;16.30;99.90;;;;;;5063993;28;20078;-50
2023/08/20 05:29:52;;;;;;;12.32;7.15;;;16.30;99.90;;;;;;5066823;28;20360;-52
2023/08/20 05:32:18;;;;;;;11.20;6.93;;;16.30;99.90;;;;;;5064931;28;20085;-51
2023/08/20 05:34:44;;;;;;;12.10;7.40;;;16.30;99.90;;;;;;5067288;28;20040;-51
2023/08/20 05:37:10;;;;;;;11.77;7.18;;;16.40;99.90;;;;;;5065316;28;20044;-52
2023/08/20 05:39:42;;;;;;;11.23;7.97;;;16.40;99.90;;;;;;5065883;28;20518;-52
2023/08/20 05:42:08;;;;;;;12.38;7.63;;;16.50;99.90;;;;;;5065760;28;20039;-53
2023/08/20 05:44:33;;;;;;;9.95;7.50;;;16.60;99.90;;;;;;5063199;28;20495;-52
2023/08/20 05:47:00;;;;;;;16.10;7.72;;;16.70;99.90;;;;;;5065613;28;20040;-49
2023/08/20 05:49:26;;;;;;;11.60;6.82;;;16.80;99.90;;;;;;5063871;28;20056;-47
2023/08/20 05:51:52;;;;;;;16.67;7.72;;;16.80;99.90;;;;;;5065880;28;20488;-49
2023/08/20 05:54:18;;;;;;;14.25;7.18;;;16.80;99.90;;;;;;5066806;28;20090;-51
2023/08/20 05:56:43;;;;;;;12.60;7.63;;;16.90;99.90;;;;;;5065978;28;20384;-50
2023/08/20 05:59:09;;;;;;;13.65;7.18;;;16.80;99.90;;;;;;5066699;28;20044;-48
2023/08/20 06:01:35;;;;;;;12.13;6.78;;;16.90;99.90;;;;;;5064309;28;20039;-51
2023/08/20 06:04:01;;;;;;;12.38;7.38;;;16.90;99.90;;;;;;5066172;28;20037;-49
2023/08/20 06:06:27;;;;;;;11.93;7.25;;;17.00;99.90;;;;;;5064312;28;20046;-51
2023/08/20 06:08:52;;;;;;;14.57;7.65;;;16.90;99.90;;;;;;5066878;28;20036;-52
2023/08/20 06:11:20;;;;;;;13.90;7.78;;;17.00;99.90;;;;;;5065778;28;20470;-52
2023/08/20 06:13:46;;;;;;;16.88;7.63;;;17.10;99.90;;;;;;5065582;28;20044;-49
2023/08/20 06:16:11;;;;;;;13.30;7.82;;;17.10;99.90;;;;;;5064888;28;20438;-50
2023/08/20 06:18:37;;;;;;;12.98;6.90;;;17.20;99.90;;;;;;5064315;28;20040;-53
2023/08/20 06:21:03;;;;;;;13.57;7.80;;;17.20;99.90;;;;;;5065169;28;20065;-50
2023/08/20 06:23:29;;;;;;;11.27;7.32;;;17.20;99.90;;;;;;5069903;28;20032;-51
2023/08/20 06:25:55;;;;;;;13.13;7.20;;;17.40;99.90;;;;;;5068442;28;20055;-51
2023/08/20 06:28:21;;;;;;;15.40;7.72;;;17.30;99.90;;;;;;5069080;28;20075;-48
2023/08/20 06:30:46;;;;;;;13.35;7.35;;;17.40;99.90;;;;;;5068222;28;20036;-52
2023/08/20 06:33:12;;;;;;;13.25;7.22;;;17.40;99.90;;;;;;5067013;28;20040;-51
2023/08/20 06:35:38;;;;;;;15.43;7.63;;;17.50;99.90;;;;;;5070019;28;20496;-52
2023/08/20 06:38:04;;;;;;;12.15;7.20;;;17.50;99.90;;;;;;5065055;28;20534;-52
2023/08/20 06:40:30;;;;;;;14.70;7.43;;;17.70;99.90;;;;;;5068851;28;20048;-49
2023/08/20 06:42:56;;;;;;;14.63;7.28;;;17.70;99.90;;;;;;5068443;28;20113;-50
2023/08/20 06:45:22;;;;;;;15.30;7.78;;;17.80;99.90;;;;;;5068754;28;20040;-50
2023/08/20 06:47:48;;;;;;;14.88;7.25;;;17.80;99.90;;;;;;5068231;28;20028;-50
2023/08/20 06:50:13;;;;;;;14.57;7.68;;;17.90;99.90;;;;;;5069274;28;20052;-51
2023/08/20 06:52:39;;;;;;;15.27;7.60;;;18.00;99.90;;;;;;5068670;28;20124;-51
2023/08/20 06:55:05;;;;;;;16.77;7.05;;;18.10;99.90;;;;;;5069369;28;20131;-52
2023/08/20 06:57:31;;;;;;;14.13;7.18;;;18.10;99.90;;;;;;5068047;28;20052;-51
2023/08/20 06:59:57;;;;;;;15.93;7.25;;;18.30;99.90;;;;;;5069252;28;20028;-50
2023/08/20 07:02:22;;;;;;;16.17;7.65;;;18.30;99.90;;;;;;5070041;28;20040;-50
2023/08/20 07:04:48;;;;;;;15.50;6.78;;;18.30;99.90;;;;;;5068046;28;20036;-50
2023/08/20 07:07:14;;;;;;;16.05;7.68;;;18.40;99.90;;;;;;5067793;28;20048;-52
2023/08/20 07:09:40;;;;;;;13.75;7.35;;;18.40;99.90;;;;;;5069120;28;20119;-52
2023/08/20 07:12:06;;;;;;;14.98;6.85;;;18.50;99.90;;;;;;5065963;28;20098;-51
2023/08/20 07:14:32;;;;;;;14.10;6.72;;;18.60;99.90;;;;;;5066555;28;20040;-52
2023/08/20 07:17:00;;;;;;;14.85;7.05;;;18.70;99.90;;;;;;5069152;28;20395;-51
2023/08/20 07:19:26;;;;;;;14.30;7.07;;;18.70;99.90;;;;;;5068103;28;20036;-49
2023/08/20 07:21:51;;;;;;;14.30;6.82;;;18.70;99.90;;;;;;5068295;28;20036;-53
2023/08/20 07:24:18;;;;;;;17.02;7.30;;;18.70;99.90;;;;;;5067971;28;20494;-49
2023/08/20 07:26:43;;;;;;;15.13;6.78;;;18.80;99.90;;;;;;5066863;28;20037;-49
2023/08/20 07:29:09;;;;;;;16.15;7.15;;;18.80;99.90;;;;;;5068559;28;20040;-50
2023/08/20 07:31:35;;;;;;;19.30;7.53;;;19.00;99.90;;;;;;5064805;28;20040;-50
2023/08/20 07:34:03;;;;;;;17.30;6.90;;;19.00;99.90;;;;;;5066724;28;20091;-52
2023/08/20 07:36:28;;;;;;;15.10;6.97;;;19.00;99.90;;;;;;5066650;28;20043;-53
2023/08/20 07:38:54;;;;;;;14.55;6.90;;;19.10;99.90;;;;;;5066848;28;20476;-47
2023/08/20 07:41:21;;;;;;;14.45;6.70;;;19.20;99.90;;;;;;5068638;28;20521;-47
2023/08/20 07:43:48;;;;;;;14.65;6.97;;;19.30;99.90;;;;;;5068848;28;20032;-51
2023/08/20 07:46:14;;;;;;;17.75;7.13;;;19.20;99.90;;;;;;5065690;28;20071;-50
2023/08/20 07:48:40;;;;;;;16.10;7.50;;;19.40;99.90;;;;;;5067562;28;20103;-51
2023/08/20 07:51:05;;;;;;;16.45;7.07;;;19.30;99.90;;;;;;5068467;28;20128;-51
2023/08/20 07:53:32;;;;;;;14.85;6.88;;;19.40;99.90;;;;;;5068004;28;20499;-51
2023/08/20 07:55:58;;;;;;;16.30;7.35;;;19.60;99.90;;;;;;5067680;28;20554;-50
2023/08/20 07:58:24;;;;;;;15.18;7.18;;;19.60;99.90;;;;;;5065764;28;20063;-48
2023/08/20 08:00:50;;;;;;;16.92;6.43;;;19.50;99.90;;;;;;5066019;28;20036;-51
2023/08/20 08:03:16;;;;;;;16.63;6.82;;;19.70;99.90;;;;;;5068324;28;20048;-50
2023/08/20 08:05:47;;;;;;;14.23;7.03;;;19.80;99.90;;;;;;5066427;28;20079;-50
2023/08/20 08:08:14;;;;;;;15.80;6.10;;;19.80;99.90;;;;;;5065949;28;20037;-49
2023/08/20 08:10:40;;;;;;;14.32;5.97;;;19.80;99.90;;;;;;5066890;28;20487;-51
2023/08/20 08:13:06;;;;;;;15.00;6.22;;;20.00;99.90;;;;;;5100800;28;20036;-51
2023/08/20 08:15:32;;;;;;;13.90;5.72;;;20.00;99.90;;;;;;5067759;28;20040;-52
2023/08/20 08:17:57;;;;;;;14.63;5.43;;;20.10;99.90;;;;;;5065703;28;20047;-55
2023/08/20 08:20:23;;;;;;;13.38;5.20;;;20.10;99.90;;;;;;5066001;28;20080;-53
2023/08/20 08:22:49;;;;;;;17.80;6.00;;;20.20;99.90;;;;;;5065222;28;20041;-52
2023/08/20 08:25:15;;;;;;;16.50;6.10;;;20.30;99.90;;;;;;5066090;28;20484;-52
2023/08/20 08:27:40;;;;;;;15.70;5.95;;;20.30;99.90;;;;;;5066031;28;20079;-50
2023/08/20 08:30:07;;;;;;;14.50;5.25;;;20.20;99.90;;;;;;5064727;28;20129;-52
2023/08/20 08:32:32;;;;;;;14.95;5.25;;;20.40;99.90;;;;;;5065029;28;20097;-51
2023/08/20 08:34:58;;;;;;;12.27;4.85;;;20.40;99.90;;;;;;5067430;28;20119;-49
2023/08/20 08:37:24;;;;;;;13.98;5.03;;;20.50;99.90;;;;;;5066318;28;20033;-50
2023/08/20 08:39:49;;;;;;;11.45;4.30;;;20.70;99.90;;;;;;5068825;28;20067;-49
2023/08/20 08:42:18;;;;;;;14.45;4.07;;;20.80;99.90;;;;;;5066104;28;20082;-53
2023/08/20 08:44:44;;;;;;;15.25;3.63;;;20.80;99.90;;;;;;5065604;28;20072;-47
2023/08/20 08:47:11;;;;;;;13.38;3.45;;;20.90;99.90;;;;;;5065531;28;20407;-49
2023/08/20 08:49:37;;;;;;;11.85;3.25;;;21.00;99.90;;;;;;5066778;28;20438;-50
2023/08/20 08:52:04;;;;;;;14.48;4.35;;;21.00;99.90;;;;;;5065718;28;20114;-49
2023/08/20 08:54:32;;;;;;;13.45;3.35;;;21.00;99.90;;;;;;5067428;28;20483;-51
2023/08/20 08:56:58;;;;;;;12.65;3.70;;;21.00;99.90;;;;;;5067263;28;20041;-52
2023/08/20 08:59:23;;;;;;;9.88;2.78;;;21.20;99.90;;;;;;5067043;28;20032;-52
2023/08/20 09:01:49;;;;;;;8.68;3.15;;;21.20;99.90;;;;;;5065873;28;20047;-49
2023/08/20 09:04:15;;;;;;;11.80;2.95;;;21.40;99.90;;;;;;5067080;28;20041;-52
2023/08/20 09:06:48;;;;;;;12.00;2.47;;;21.40;99.90;;;;;;5065668;28;20028;-50
2023/08/20 09:09:16;;;;;;;9.25;2.60;;;21.50;99.90;;;;;;5067621;28;20123;-49
2023/08/20 09:11:41;;;;;;;11.90;3.03;;;21.50;99.90;;;;;;5064229;28;20029;-50
2023/08/20 09:14:07;;;;;;;7.93;2.47;;;21.60;99.90;;;;;;5066582;28;20032;-51
2023/08/20 09:16:33;;;;;;;12.35;3.08;;;21.70;99.90;;;;;;5065107;28;20553;-52
2023/08/20 09:19:00;;;;;;;7.70;2.55;;;21.80;99.90;;;;;;5065629;28;20044;-51
2023/08/20 09:21:29;;;;;;;11.18;2.22;;;22.00;99.90;;;;;;5066941;28;20041;-51
2023/08/20 09:23:57;;;;;;;8.88;2.42;;;22.10;99.90;;;;;;5063393;28;20082;-49
2023/08/20 09:26:23;;;;;;;7.35;1.88;;;22.20;99.90;;;;;;5065897;28;20041;-51
2023/08/20 09:28:49;;;;;;;9.52;2.05;;;22.40;99.90;;;;;;5065613;28;20090;-51
2023/08/20 09:31:15;;;;;;;6.95;1.65;;;22.50;99.90;;;;;;5067309;28;20090;-53
2023/08/20 09:33:50;;;;;;;8.70;2.22;;;22.60;99.90;;;;;;5066118;28;20685;-50
2023/08/20 09:36:16;;;;;;;10.48;1.83;;;22.60;99.90;;;;;;5066866;28;20101;-50
2023/08/20 09:38:42;;;;;;;10.35;1.73;;;22.80;99.90;;;;;;5067239;28;20064;-53
2023/08/20 09:41:08;;;;;;;9.57;1.90;;;22.80;99.90;;;;;;5067545;28;20087;-54
2023/08/20 09:43:38;;;;;;;8.23;1.80;;;23.00;99.90;;;;;;5065161;28;20033;-47
2023/08/20 09:46:05;;;;;;;7.70;1.58;;;23.00;99.90;;;;;;5065120;28;20048;-49
2023/08/20 09:48:35;;;;;;;9.98;1.52;;;23.10;99.90;;;;;;5064778;28;20044;-52
2023/08/20 09:51:05;;;;;;;8.00;1.40;;;23.20;99.90;;;;;;5065160;28;20048;-52
2023/08/20 09:53:45;;;;;;;6.40;1.45;;;23.20;99.90;;;;;;5065374;28;20029;-51
2023/08/20 09:56:25;;;;;;;8.50;1.80;;;23.20;99.90;;;;;;5067333;28;20380;-51
2023/08/20 09:58:52;;;;;;;7.68;1.55;;;23.30;99.90;;;;;;5068276;28;20041;-50
2023/08/20 10:01:18;;;;;;;5.45;1.45;;;23.30;99.90;;;;;;5068839;28;20051;-47
2023/08/20 10:03:44;;;;;;;7.72;1.92;;;23.40;99.90;;;;;;5069822;28;20032;-52
2023/08/20 10:06:11;;;;;;;9.48;1.75;;;23.40;99.90;;;;;;5069037;28;20151;-52
2023/08/20 10:08:37;;;;;;;7.18;1.45;;;23.50;99.90;;;;;;5067981;28;20037;-49
2023/08/20 10:11:03;;;;;;;10.20;1.80;;;23.60;99.90;;;;;;5069194;28;20048;-52
2023/08/20 10:13:29;;;;;;;7.60;1.42;;;23.60;99.90;;;;;;5069920;28;20124;-49
2023/08/20 10:15:56;;;;;;;5.45;1.17;;;23.70;99.90;;;;;;5069530;28;20078;-49
2023/08/20 10:18:22;;;;;;;7.32;1.63;;;23.70;99.90;;;;;;5069086;28;20119;-50
2023/08/20 10:20:51;;;;;;;9.27;1.90;;;23.70;99.90;;;;;;5069600;28;20036;-50
2023/08/20 10:23:22;;;;;;;5.95;1.30;;;23.70;99.90;;;;;;5068056;28;20383;-53
2023/08/20 10:25:48;;;;;;;8.00;1.65;;;23.70;99.90;;;;;;5068473;28;20056;-52
2023/08/20 10:28:34;;;;;;;5.93;1.58;;;23.70;99.90;;;;;;5069001;28;20365;-53
2023/08/20 10:31:08;;;;;;;7.40;1.38;;;23.80;99.90;;;;;;5066602;28;20101;-53
2023/08/20 10:33:35;;;;;;;6.85;1.30;;;23.90;99.90;;;;;;5067879;28;20460;-52
2023/08/20 10:36:09;;;;;;;10.13;1.75;;;23.90;99.90;;;;;;5067508;28;20044;-52
2023/08/20 10:38:38;;;;;;;7.20;1.63;;;24.10;99.90;;;;;;5069255;28;20039;-52
2023/08/20 10:41:08;;;;;;;8.65;1.73;;;24.10;99.90;;;;;;5068066;28;20400;-51
2023/08/20 10:43:39;;;;;;;6.53;1.27;;;24.10;99.90;;;;;;5065648;28;20120;-51
2023/08/20 10:46:07;;;;;;;7.28;1.80;;;24.30;99.90;;;;;;5070379;28;20117;-52
2023/08/20 10:48:35;;;;;;;8.23;2.17;;;24.40;99.90;;;;;;5067473;28;20072;-50
2023/08/20 10:51:28;;;;;;;8.40;1.73;;;24.60;99.90;;;;;;5069764;28;20075;-50
2023/08/20 10:54:10;;;;;;;7.88;1.58;;;24.60;99.90;;;;;;5066950;28;20127;-52
2023/08/20 10:56:57;;;;;;;6.85;1.55;;;24.70;99.90;;;;;;5069531;28;20450;-51
2023/08/20 10:59:28;;;;;;;7.32;1.60;;;24.80;99.90;;;;;;5067007;28;20083;-50
2023/08/20 11:01:56;;;;;;;7.43;1.60;;;24.70;99.90;;;;;;5068792;28;20106;-52
2023/08/20 11:04:26;;;;;;;8.10;2.05;;;24.70;99.90;;;;;;5067322;28;20072;-51
2023/08/20 11:07:01;;;;;;;8.90;1.85;;;24.90;99.90;;;;;;5068744;28;20090;-50
2023/08/20 11:09:29;;;;;;;6.35;1.40;;;25.10;99.90;;;;;;5068886;28;20064;-49
2023/08/20 11:11:55;;;;;;;7.07;1.20;;;25.30;99.90;;;;;;5068425;28;20036;-51
2023/08/20 11:14:22;;;;;;;11.52;1.85;;;25.60;99.90;;;;;;5066090;28;20043;-52
2023/08/20 11:16:48;;;;;;;8.77;1.33;;;25.90;99.90;;;;;;5067929;28;20131;-54
2023/08/20 11:19:18;;;;;;;5.80;1.20;;;26.00;99.90;;;;;;5067472;28;20102;-50
2023/08/20 11:21:45;;;;;;;7.65;1.20;;;26.00;99.90;;;;;;5066905;28;20035;-53
2023/08/20 11:24:12;;;;;;;5.75;1.38;;;26.00;99.90;;;;;;5067582;28;20098;-52
2023/08/20 11:26:42;;;;;;;7.30;1.38;;;26.00;99.90;;;;;;5068028;28;20037;-53
2023/08/20 11:29:12;;;;;;;7.18;1.98;;;25.90;99.90;;;;;;5068737;28;20573;-53
2023/08/20 11:31:39;;;;;;;7.25;1.50;;;25.70;99.90;;;;;;5067019;28;20044;-51
2023/08/20 11:34:06;;;;;;;6.55;1.40;;;25.60;99.90;;;;;;5067388;28;20424;-49
2023/08/20 11:36:31;;;;;;;8.15;1.70;;;25.60;99.90;;;;;;5069670;28;20039;-50
2023/08/20 11:38:57;;;;;;;7.72;1.58;;;25.80;99.90;;;;;;5065871;28;20399;-50
2023/08/20 11:41:24;;;;;;;7.65;1.48;;;25.80;99.90;;;;;;5068331;28;20047;-52
2023/08/20 11:43:51;;;;;;;9.35;2.40;;;25.90;99.90;;;;;;5067744;28;20036;-52
2023/08/20 11:46:19;;;;;;;8.20;1.58;;;26.00;99.90;;;;;;5068405;28;20090;-50
2023/08/20 11:49:03;;;;;;;7.75;1.58;;;26.10;99.90;;;;;;5067835;28;20040;-53
2023/08/20 11:51:42;;;;;;;7.85;1.63;;;26.20;99.90;;;;;;5064935;28;20472;-51
2023/08/20 11:54:18;;;;;;;8.88;1.45;;;26.20;99.90;;;;;;5067203;28;20059;-52
2023/08/20 11:56:51;;;;;;;6.45;1.73;;;26.30;99.90;;;;;;5066956;28;20037;-52
2023/08/20 11:59:20;;;;;;;6.80;1.60;;;26.30;99.90;;;;;;5065150;28;20041;-52
2023/08/20 12:01:54;;;;;;;6.00;1.38;;;26.40;99.90;;;;;;5067332;28;20357;-50
2023/08/20 12:04:25;;;;;;;4.50;1.00;;;26.50;99.90;;;;;;5067902;28;20036;-50
2023/08/20 12:07:14;;;;;;;6.13;1.00;;;26.60;99.90;;;;;;5065759;28;20044;-51
2023/08/20 12:09:40;;;;;;;4.50;1.23;;;26.70;99.90;;;;;;5067184;28;20449;-51
2023/08/20 12:12:07;;;;;;;5.38;1.00;;;26.60;99.90;;;;;;5067162;28;20123;-53
2023/08/20 12:14:33;;;;;;;6.00;1.30;;;26.70;99.90;;;;;;5065844;28;20376;-50
2023/08/20 12:16:59;;;;;;;6.07;1.00;;;26.80;99.90;;;;;;5067921;28;20040;-51
2023/08/20 12:19:25;;;;;;;6.88;1.17;;;26.90;99.90;;;;;;5067624;28;20055;-51
2023/08/20 12:21:51;;;;;;;5.32;0.98;;;27.00;99.90;;;;;;5065614;28;20419;-52
2023/08/20 12:24:19;;;;;;;7.13;1.15;;;27.00;99.90;;;;;;5068377;28;20044;-52
2023/08/20 12:26:45;;;;;;;4.25;0.88;;;27.00;99.90;;;;;;5065389;28;20048;-52
2023/08/20 12:29:11;;;;;;;4.57;0.90;;;27.20;99.90;;;;;;5066975;28;20040;-53
2023/08/20 12:31:39;;;;;;;5.53;1.00;;;27.30;99.90;;;;;;5066372;28;20045;-51
2023/08/20 12:34:05;;;;;;;5.25;1.00;;;27.30;99.90;;;;;;5066355;28;20041;-52
2023/08/20 12:36:31;;;;;;;4.93;0.90;;;27.30;99.90;;;;;;5066312;28;20563;-53
2023/08/20 12:38:57;;;;;;;7.78;1.38;;;27.30;99.90;;;;;;5065477;28;20041;-51
2023/08/20 12:41:23;;;;;;;4.55;0.80;;;27.30;99.90;;;;;;5067126;28;20384;-51